Yoman Ferry, Washington
Current Conditions -  °F | °C
As of 2:13 AM on Sunday 25 Jan 2015 (Local Time) from KGRF Reporting Station
Heavy Rain Heavy Rain  
Wind Chill: 52°   Ceiling: 200
Heat Index: 52°   Visibility: 1.5mi
Dew Point: 52°   Wind: 2mph
Humidity: 100%   Direction: 160°SSE
Pressure: 30.22"   Gusts: NA
Location:  47.1608°N, 122.692°W
Report Text: KGRF 251013Z AUTO 16002KT 1 1/2SM R15/3500FT +RA BR OVC002 11/11 A3022 RMK AO2 $
Loading
Personal Weather Stations






























Interactive Weather Map New forecast layout! Learn more

10-Day Weather Forecast

Advertisements
Track Severe Weather on mobile